createdAt,value
2018-08-28T11:04:15.980Z,52.30
2018-08-28T11:06:44.791Z,50.70
2018-08-28T11:09:13.589Z,50.60
2018-08-28T11:11:42.739Z,49.90
2018-08-28T11:14:11.607Z,49.30
2018-08-28T11:16:40.403Z,48.40
2018-08-28T11:19:09.218Z,48.60
2018-08-28T11:21:38.011Z,47.70
2018-08-28T11:24:06.859Z,47.80
2018-08-28T11:26:35.720Z,47.60
2018-08-28T11:29:04.575Z,47.80
2018-08-28T11:31:33.414Z,47.20
2018-08-28T11:34:02.256Z,46.90
2018-08-28T11:36:31.121Z,46.70
2018-08-28T11:39:00.189Z,46.70
2018-08-28T11:41:29.066Z,44.80
2018-08-28T11:43:57.910Z,45.80
2018-08-28T11:46:26.811Z,45.40
2018-08-28T11:48:55.712Z,44.70
2018-08-28T11:51:24.553Z,45.10
2018-08-28T11:53:53.419Z,45.80
2018-08-28T11:56:22.247Z,45.60
2018-08-28T11:58:51.115Z,45.30
2018-08-28T12:01:19.959Z,45.40
2018-08-28T12:03:48.772Z,44.20
2018-08-28T12:06:17.845Z,44.10
2018-08-28T12:08:46.650Z,43.80
2018-08-28T12:11:15.510Z,43.80
2018-08-28T12:13:44.338Z,43.80
2018-08-28T12:16:13.156Z,43.70
2018-08-28T12:18:42.028Z,43.70
2018-08-28T12:21:10.840Z,42.70
2018-08-28T12:23:39.637Z,42.40
2018-08-28T12:26:08.479Z,42.10
2018-08-28T12:28:37.380Z,41.40
2018-08-28T12:31:06.227Z,40.70
2018-08-28T12:33:35.263Z,40.40
2018-08-28T12:36:04.520Z,41.10
2018-08-28T12:38:33.680Z,40.60
2018-08-28T12:41:02.488Z,39.90
2018-08-28T12:43:31.309Z,40.00
2018-08-28T12:46:00.126Z,38.50
2018-08-28T12:48:29.378Z,38.40
2018-08-28T12:50:58.241Z,38.70
2018-08-28T12:53:27.053Z,39.00
2018-08-28T12:55:55.898Z,36.90
2018-08-28T12:58:24.712Z,37.50
2018-08-28T13:00:53.553Z,37.70
2018-08-28T13:03:22.401Z,37.30
2018-08-28T13:05:51.261Z,38.50
2018-08-28T13:08:20.072Z,36.30
2018-08-28T13:10:48.873Z,37.80
2018-08-28T13:13:17.991Z,36.90
2018-08-28T13:15:46.867Z,37.50
2018-08-28T13:18:15.697Z,37.20
2018-08-28T13:20:44.525Z,36.30
2018-08-28T13:23:13.405Z,36.50
2018-08-28T13:25:42.316Z,35.50
2018-08-28T13:28:11.170Z,34.90
2018-08-28T13:30:39.989Z,34.60
2018-08-28T13:33:09.290Z,34.30
2018-08-28T13:35:38.382Z,34.20
2018-08-28T13:38:07.242Z,35.00
2018-08-28T13:40:36.161Z,34.00
2018-08-28T13:43:05.402Z,33.80
2018-08-28T13:45:34.258Z,34.20
2018-08-28T13:48:03.031Z,34.20
2018-08-28T13:50:32.128Z,33.70
2018-08-28T13:53:00.965Z,33.80
2018-08-28T13:55:29.849Z,33.90
2018-08-28T13:57:58.690Z,33.10
2018-08-28T14:00:27.600Z,34.00
2018-08-28T14:02:56.453Z,33.80
2018-08-28T14:05:25.250Z,34.20
2018-08-28T14:07:54.029Z,34.20
2018-08-28T14:10:22.884Z,33.20
2018-08-28T14:12:51.736Z,32.90
2018-08-28T14:15:20.622Z,34.20
2018-08-28T14:17:49.431Z,34.50
2018-08-28T14:20:18.293Z,33.30
2018-08-28T14:22:47.182Z,34.60
2018-08-28T14:25:16.043Z,33.60
2018-08-28T14:27:44.971Z,33.80
2018-08-28T14:30:13.839Z,33.30
2018-08-28T14:32:42.652Z,34.00
2018-08-28T14:35:11.535Z,33.20
2018-08-28T14:37:40.512Z,33.20
2018-08-28T14:40:09.368Z,33.50
2018-08-28T14:42:38.369Z,34.00
2018-08-28T14:45:07.565Z,33.10
2018-08-28T14:47:36.405Z,34.20
2018-08-28T14:50:05.865Z,34.90
2018-08-28T14:52:34.694Z,34.10
2018-08-28T14:55:03.530Z,34.40
2018-08-28T14:57:32.333Z,34.10
2018-08-28T15:00:01.143Z,34.20
2018-08-28T15:02:30.033Z,33.70
2018-08-28T15:04:58.909Z,33.80
2018-08-28T15:07:27.786Z,33.80
2018-08-28T15:09:56.626Z,34.00
2018-08-28T15:12:25.469Z,34.10
2018-08-28T15:14:54.346Z,34.50
2018-08-28T15:17:23.194Z,34.20
2018-08-28T15:19:52.382Z,34.70
2018-08-28T15:22:20.914Z,34.90
2018-08-28T15:24:49.768Z,35.70
2018-08-28T15:27:18.701Z,36.20
2018-08-28T15:29:47.481Z,35.30
2018-08-28T15:32:16.293Z,35.60
2018-08-28T15:34:45.160Z,34.80
2018-08-28T15:37:13.994Z,35.80
2018-08-28T15:39:42.894Z,35.30
2018-08-28T15:42:11.752Z,35.90
2018-08-28T15:44:40.635Z,36.60
2018-08-28T15:47:09.434Z,36.50
2018-08-28T15:49:38.273Z,37.20
2018-08-28T15:52:07.151Z,36.50
2018-08-28T15:54:35.960Z,36.70
2018-08-28T15:57:05.122Z,36.80
2018-08-28T15:59:33.891Z,37.10
2018-08-28T16:02:02.753Z,38.30
2018-08-28T16:04:31.528Z,37.90
2018-08-28T16:07:00.312Z,37.20
2018-08-28T16:09:29.108Z,37.90
2018-08-28T16:11:57.949Z,37.60
2018-08-28T16:14:26.823Z,38.60
2018-08-28T16:16:55.676Z,37.90
2018-08-28T16:19:24.456Z,38.70
2018-08-28T16:21:56.203Z,38.80
2018-08-28T16:24:25.064Z,39.30
2018-08-28T16:26:54.410Z,39.70
2018-08-28T16:29:23.235Z,39.90
2018-08-28T16:31:52.325Z,40.40
2018-08-28T16:34:21.219Z,41.70
2018-08-28T16:36:50.108Z,41.60
2018-08-28T16:39:18.969Z,41.80
2018-08-28T16:41:47.868Z,42.40
2018-08-28T16:44:16.769Z,42.90
2018-08-28T16:46:45.672Z,43.50
2018-08-28T16:49:14.469Z,44.10
2018-08-28T16:51:43.301Z,44.80
2018-08-28T16:54:12.375Z,45.10
2018-08-28T16:56:41.240Z,45.50
2018-08-28T16:59:10.084Z,45.70
2018-08-28T17:01:38.984Z,46.00
2018-08-28T17:04:07.827Z,46.70
2018-08-28T17:06:36.824Z,47.30
2018-08-28T17:09:06.849Z,48.00
2018-08-28T17:11:36.621Z,48.70
2018-08-28T17:14:05.507Z,49.40
2018-08-28T17:16:34.367Z,50.00
2018-08-28T17:19:03.350Z,50.30
2018-08-28T17:21:32.412Z,50.30
2018-08-28T17:24:01.245Z,50.60
2018-08-28T17:26:30.126Z,51.00
2018-08-28T17:28:59.130Z,50.80
2018-08-28T17:31:28.486Z,50.80
2018-08-28T17:33:57.629Z,51.00
2018-08-28T17:36:26.463Z,51.50
2018-08-28T17:38:55.268Z,51.40
2018-08-28T17:41:24.059Z,51.70
2018-08-28T17:43:52.872Z,52.10
2018-08-28T17:46:21.686Z,52.70
2018-08-28T17:48:50.579Z,52.90
2018-08-28T17:51:19.375Z,53.10
2018-08-28T17:53:48.157Z,53.30
2018-08-28T17:56:16.910Z,53.40
2018-08-28T17:58:45.821Z,53.90
2018-08-28T18:01:15.103Z,54.10
2018-08-28T18:03:44.359Z,54.40
2018-08-28T18:06:13.164Z,54.50
2018-08-28T18:08:41.989Z,54.80
2018-08-28T18:11:10.859Z,54.80
2018-08-28T18:13:39.763Z,54.90
2018-08-28T18:16:08.904Z,54.80
2018-08-28T18:18:37.737Z,55.10
2018-08-28T18:21:06.692Z,55.70
2018-08-28T18:23:35.566Z,55.60
2018-08-28T18:26:04.420Z,55.80
2018-08-28T18:28:33.281Z,55.80
2018-08-28T18:31:02.107Z,56.10
2018-08-28T18:33:30.910Z,56.10
2018-08-28T18:35:59.811Z,56.30
2018-08-28T18:38:28.732Z,56.50
2018-08-28T18:40:57.593Z,56.90
2018-08-28T18:43:26.803Z,57.50
2018-08-28T18:45:55.653Z,57.80
2018-08-28T18:48:24.801Z,58.00
2018-08-28T18:50:53.597Z,57.90
2018-08-28T18:53:22.417Z,57.50
2018-08-28T18:55:51.203Z,57.40
2018-08-28T18:58:20.017Z,57.60
2018-08-28T19:00:48.851Z,58.00
2018-08-28T19:03:17.674Z,57.90
2018-08-28T19:05:46.493Z,58.00
2018-08-28T19:08:15.346Z,58.00
2018-08-28T19:10:44.213Z,57.90
2018-08-28T19:13:13.051Z,58.20
2018-08-28T19:15:41.925Z,58.30
2018-08-28T19:18:10.762Z,58.70
2018-08-28T19:20:39.645Z,58.40
2018-08-28T19:23:08.742Z,58.70
2018-08-28T19:25:37.856Z,59.00
2018-08-28T19:28:07.039Z,58.90
2018-08-28T19:30:35.889Z,59.50
2018-08-28T19:33:04.752Z,59.50
2018-08-28T19:35:33.673Z,59.30
2018-08-28T19:38:02.727Z,59.20
2018-08-28T19:40:31.642Z,59.30
2018-08-28T19:43:00.495Z,60.10
2018-08-28T19:45:29.271Z,61.30
2018-08-28T19:47:58.104Z,63.70
2018-08-28T19:50:26.986Z,64.70
2018-08-28T19:52:55.806Z,66.30
2018-08-28T19:55:24.625Z,66.70
2018-08-28T19:57:53.740Z,67.30
2018-08-28T20:00:22.606Z,68.20
2018-08-28T20:02:51.549Z,69.20
2018-08-28T20:05:20.409Z,70.00
2018-08-28T20:07:49.192Z,72.60
2018-08-28T20:10:18.041Z,74.50
2018-08-28T20:12:46.849Z,76.10
2018-08-28T20:15:15.836Z,77.60
2018-08-28T20:17:45.140Z,79.50
2018-08-28T20:20:14.235Z,80.60
2018-08-28T20:22:43.414Z,82.40
2018-08-28T20:25:12.318Z,82.90
2018-08-28T20:27:41.636Z,84.30
2018-08-28T20:30:10.605Z,85.20
2018-08-28T20:32:39.408Z,85.80
2018-08-28T20:35:08.930Z,85.80
2018-08-28T20:37:38.197Z,85.20
2018-08-28T20:40:07.144Z,86.00
2018-08-28T20:42:36.092Z,85.80
2018-08-28T20:45:05.271Z,86.30
2018-08-28T20:47:34.476Z,87.80
2018-08-28T20:50:03.786Z,88.80
2018-08-28T20:52:32.679Z,89.20
2018-08-28T20:55:01.918Z,90.40
2018-08-28T20:57:30.986Z,91.30
2018-08-28T21:00:00.057Z,92.40
2018-08-28T21:02:28.969Z,93.00
2018-08-28T21:04:58.083Z,93.50
2018-08-28T21:07:27.227Z,93.20
2018-08-28T21:09:56.236Z,93.60
2018-08-28T21:12:25.337Z,94.20
2018-08-28T21:14:54.462Z,94.40
2018-08-28T21:17:23.577Z,94.70
2018-08-28T21:19:52.805Z,94.10
2018-08-28T21:22:21.916Z,93.90
2018-08-28T21:24:51.129Z,93.90
2018-08-28T21:27:20.081Z,93.90
2018-08-28T21:29:49.228Z,94.10
2018-08-28T21:32:18.083Z,94.00
2018-08-28T21:34:46.925Z,94.60
2018-08-28T21:37:15.720Z,94.80
2018-08-28T21:39:44.829Z,93.80
2018-08-28T21:42:14.059Z,93.60
2018-08-28T21:44:42.854Z,93.90
2018-08-28T21:47:11.822Z,94.00
2018-08-28T21:49:40.832Z,94.40
2018-08-28T21:52:10.056Z,95.00
2018-08-28T21:54:39.154Z,93.70
2018-08-28T21:57:08.318Z,93.90
2018-08-28T21:59:37.510Z,95.10
2018-08-28T22:02:06.849Z,95.70
2018-08-28T22:04:36.012Z,95.90
2018-08-28T22:07:10.492Z,95.70
2018-08-28T22:09:40.376Z,95.80
2018-08-28T22:12:09.645Z,95.30
2018-08-28T22:14:38.736Z,96.20
2018-08-28T22:17:08.040Z,97.00
2018-08-28T22:19:37.137Z,96.50
2018-08-28T22:22:06.326Z,97.10
2018-08-28T22:24:35.552Z,96.70
2018-08-28T22:27:04.639Z,95.60
2018-08-28T22:29:33.809Z,95.70
2018-08-28T22:32:02.908Z,96.90
2018-08-28T22:34:32.017Z,96.90
2018-08-28T22:37:01.232Z,97.00
2018-08-28T22:39:30.419Z,97.60
2018-08-28T22:41:59.491Z,97.50
2018-08-28T22:44:28.485Z,96.90
2018-08-28T22:46:57.588Z,95.80
2018-08-28T22:49:26.753Z,96.00
2018-08-28T22:51:55.893Z,97.10
2018-08-28T22:54:24.784Z,98.00
2018-08-28T22:56:54.068Z,98.50
2018-08-28T22:59:23.305Z,98.80
2018-08-28T23:01:52.384Z,99.20
2018-08-28T23:04:21.445Z,99.80
2018-08-28T23:06:50.473Z,99.90
2018-08-28T23:09:19.537Z,99.90
2018-08-28T23:11:48.538Z,99.90
2018-08-28T23:14:17.532Z,99.90
2018-08-28T23:16:46.622Z,99.90
2018-08-28T23:19:15.704Z,99.90
2018-08-28T23:21:44.921Z,99.90
2018-08-28T23:24:14.093Z,99.90
2018-08-28T23:26:43.232Z,99.90
2018-08-28T23:29:12.329Z,99.90
2018-08-28T23:31:41.531Z,99.90
2018-08-28T23:34:10.703Z,99.90
2018-08-28T23:36:39.798Z,99.90
2018-08-28T23:39:08.975Z,99.90
2018-08-28T23:41:37.964Z,99.90
2018-08-28T23:44:06.939Z,99.90
2018-08-28T23:46:36.185Z,99.90
2018-08-28T23:49:05.456Z,99.90
2018-08-28T23:51:34.688Z,99.90
2018-08-28T23:54:03.981Z,99.90
2018-08-28T23:56:33.148Z,99.90
2018-08-28T23:59:02.355Z,99.90
